AGROMETEOROLOŠKI PORTAL

vinorodna pokrajina

Temelj dobrega kmetovanja

Pregled podatkov za lokacijo Bizeljsko, meteorološka postaja 863816

Pregled senzorjev na lokaciji

ID Ime Zadnja
vrednost
Datum in čas
meritve
(lokalni čas)
Tip
senzorja
5035 Omočenost lista (1,5 m) (U) 0 U 4.2.2023 23:00 A730WET
5037 Padavine (mm) 0 mm 4.2.2023 23:00 Generic 0.2 mm
5034 Relativna zračna vlaga (2 m) (%RH) 51 %RH 4.2.2023 23:00 50YA
5033 Temperatura (2 m) (°C) 0,1 °C 4.2.2023 23:00 50YA

Pregled podatkov zadnjih 24 ur

Zap.
št.
Datum in čas
(lokalni čas)
Bizeljsko
Omočenost
lista
(1,5
m)
Padavine Relativna
zračna
vlaga
(2
m)
Temperatura
(2
m)
1 4.2.2023 23:00 0 0 51 0,1
2 4.2.2023 22:30 0 0 53 0,1
3 4.2.2023 22:00 0 0 55,6 0
4 4.2.2023 21:30 0 0 56,7 0,1
5 4.2.2023 21:00 0 0 56,3 0,3
6 4.2.2023 20:30 0 0 54,1 0,8
7 4.2.2023 20:00 0 0 53,5 1
8 4.2.2023 19:30 0 0 50 1,7
9 4.2.2023 19:00 0 0 45,9 2,5
10 4.2.2023 18:30 0 0 42,5 2,9
11 4.2.2023 18:00 0 0 40,5 3,4
12 4.2.2023 17:30 0 0 40,8 3,7
13 4.2.2023 17:00 0 0 41,1 3,8
14 4.2.2023 16:30 0 0 39,6 4,5
15 4.2.2023 16:00 0 0 38,3 4,9
16 4.2.2023 15:30 0 0 37,9 5,1
17 4.2.2023 15:00 0 0 38,9 5,1
18 4.2.2023 14:30 0 0 39,8 5,2
19 4.2.2023 14:00 0 0 41,8 5,7
20 4.2.2023 13:30 0 0 40,7 6,4
21 4.2.2023 13:00 0 0 40,8 6,7
22 4.2.2023 12:30 0 0 42,3 7,4
23 4.2.2023 12:00 0 0 47 7,1
24 4.2.2023 11:30 0 0 50,7 7
25 4.2.2023 11:00 0 0 50 6,8
26 4.2.2023 10:30 0 0 50,5 7
27 4.2.2023 10:00 0 0 47,5 7,9
28 4.2.2023 09:30 0 0 39,3 9
29 4.2.2023 09:00 0 0 42,4 8,7
30 4.2.2023 08:30 0 0 46,1 8,2
31 4.2.2023 08:00 0 0 48,4 7,6
32 4.2.2023 07:30 0 0 47,6 7,8
33 4.2.2023 07:00 0 0 50,9 7,6
34 4.2.2023 06:30 0 0 56,3 7
35 4.2.2023 06:00 0 0 77,8 3,8
36 4.2.2023 05:30 0 0 73,3 4,6
37 4.2.2023 05:00 0 0 72,5 4,8
38 4.2.2023 04:30 0 0 64,1 6,7
39 4.2.2023 04:00 0 0 65,3 6,5
40 4.2.2023 03:30 0 0 73 5,2
41 4.2.2023 03:00 0 0 77,5 4,6
42 4.2.2023 02:30 0 0 80,1 4
43 4.2.2023 02:00 0 0 77,6 4,6
44 4.2.2023 01:30 0 0 74,8 5,3
45 4.2.2023 01:00 0 0 74,1 5,4
46 4.2.2023 00:30 0 0 76,1 5,1
47 4.2.2023 00:00 0 0 70,4 6
48 3.2.2023 23:30 0 0 70,3 6,4